Time;durP1;ratioP1;P1;durP2;ratioP2;P2;SDS_P1;SDS_P2;PMS_P1;PMS_P2;Temp;Humidity;BMP_temperature;BMP_pressure;BME280_temperature;BME280_humidity;BME280_pressure;Samples;Min_cycle;Max_cycle;Signal;HPM_P1;HPM_P2
2022/04/04 00:00:54;;;;;;;;;;;-1.20;99.90;;;-2.69;94.79;95921.44;10562076;28;1833;-69
2022/04/04 00:05:58;;;;;;;;;;;-1.30;99.90;;;-2.70;95.22;95925.06;10583340;27;1961;-70
2022/04/04 00:11:01;;;;;;;;;;;-1.30;99.90;;;-2.78;94.69;95918.94;10564662;28;1996;-70
2022/04/04 00:16:03;;;;;;;;;;;-1.40;99.90;;;-2.85;95.31;95919.88;10549193;27;2151;-69
2022/04/04 00:21:07;;;;;;;;;;;;;;;-3.00;95.75;95909.38;10570414;27;2136;-69
2022/04/04 00:26:10;;;;;;;;;;;-1.70;99.90;;;-3.03;96.99;95905.31;10560874;28;2373;-68
2022/04/04 00:31:13;;;;;;;;;;;-1.80;99.90;;;-3.10;96.86;95904.41;10563608;27;2421;-68
2022/04/04 00:36:16;;;;;;;;;;;-1.80;99.90;;;-3.04;97.48;95897.63;10558105;27;1841;-67
2022/04/04 00:41:19;;;;;;;;;;;-1.90;99.90;;;-3.05;97.58;95893.34;10553010;28;2329;-69
2022/04/04 00:46:22;;;;;;;;;;;-1.80;99.90;;;-3.15;98.34;95880.50;10569569;27;1943;-68
2022/04/04 00:51:25;;;;;;;;;;;-1.80;99.90;;;-3.21;98.42;95890.94;10552885;28;1922;-67
2022/04/04 00:56:28;;;;;;;;;;;-1.90;99.90;;;-3.33;98.47;95877.44;10554568;27;1848;-67
2022/04/04 01:01:30;;;;;;;;;;;-2.10;99.90;;;-3.35;97.57;95876.84;10559359;28;1894;-68
2022/04/04 01:06:33;;;;;;;;;;;-2.10;99.90;;;-3.37;97.17;95865.66;10558351;27;1935;-68
2022/04/04 01:11:37;;;;;;;;;;;-2.20;99.90;;;-3.40;95.11;95866.06;10555330;27;1977;-68
2022/04/04 01:16:39;;;;;;;;;;;-2.00;99.90;;;-3.45;96.21;95866.59;10562880;28;1897;-68
2022/04/04 01:21:42;;;;;;;;;;;-2.00;99.90;;;-3.51;96.33;95863.88;10561059;28;1981;-68
2022/04/04 01:26:46;;;;;;;;;;;-2.10;99.90;;;-3.52;97.63;95857.81;10563275;28;1917;-68
2022/04/04 01:31:49;;;;;;;;;;;-2.20;99.90;;;-3.50;97.73;95863.69;10554081;28;1986;-69
2022/04/04 01:36:52;;;;;;;;;;;-2.20;99.90;;;-3.67;97.76;95857.03;10559689;28;2026;-68
2022/04/04 01:41:54;;;;;;;;;;;-2.30;99.90;;;-3.70;97.80;95850.31;10558415;28;2024;-68
2022/04/04 01:46:58;;;;;;;;;;;-2.50;99.90;;;-3.75;98.06;95851.84;10556508;28;1877;-68
2022/04/04 01:52:02;;;;;;;;;;;-2.50;99.90;;;-3.81;97.36;95846.34;10557633;28;1969;-69
2022/04/04 01:57:04;;;;;;;;;;;-2.50;99.90;;;-3.82;97.69;95842.09;10552564;28;1845;-69
2022/04/04 02:02:07;;;;;;;;;;;-2.60;99.90;;;-3.90;97.84;95836.94;10554423;28;1821;-67
2022/04/04 02:07:10;;;;;;;;;;;-2.70;99.90;;;-3.89;97.55;95841.19;10578637;27;1808;-68
2022/04/04 02:12:13;;;;;;;;;;;-2.60;99.90;;;-3.91;97.10;95835.31;10553506;28;1918;-68
2022/04/04 02:17:16;;;;;;;;;;;-2.60;99.90;;;-3.86;97.41;95840.03;10561098;28;1814;-68
2022/04/04 02:22:20;;;;;;;;;;;-2.60;99.90;;;-3.94;96.71;95822.56;10552331;28;2000;-68
2022/04/04 02:27:22;;;;;;;;;;;-2.60;99.90;;;-3.98;96.96;95826.53;10553275;28;1862;-68
2022/04/04 02:32:26;;;;;;;;;;;-2.70;99.90;;;-3.98;96.77;95826.53;10574644;27;1981;-68
2022/04/04 02:37:29;;;;;;;;;;;-2.70;99.90;;;-4.01;97.60;95828.69;10559930;28;1889;-68
2022/04/04 02:42:31;;;;;;;;;;;-2.70;99.90;;;-4.01;99.20;95826.88;10554002;28;1896;-68
2022/04/04 02:47:35;;;;;;;;;;;-2.70;99.90;;;-4.01;100.00;95826.06;10558839;28;1865;-69
2022/04/04 02:52:39;;;;;;;;;;;-2.70;99.90;;;-4.05;100.00;95825.63;10552746;28;1917;-71
2022/04/04 02:57:43;;;;;;;;;;;-2.80;99.90;;;-4.02;100.00;95817.38;10576250;28;1799;-70
2022/04/04 03:02:46;;;;;;;;;;;-2.80;99.90;;;-4.03;100.00;95813.13;10559001;28;1721;-69
2022/04/04 03:07:49;;;;;;;;;;;-2.70;99.90;;;-3.95;100.00;95809.59;10554424;28;1880;-68
2022/04/04 03:12:52;;;;;;;;;;;-2.70;99.90;;;-3.87;100.00;95806.88;10566389;28;1890;-67
2022/04/04 03:17:57;;;;;;;;;;;-2.60;99.90;;;-3.86;100.00;95798.00;10559413;28;1828;-69
2022/04/04 03:23:00;;;;;;;;;;;-2.50;99.90;;;-3.85;100.00;95805.69;10574271;27;2019;-68
2022/04/04 03:28:04;;;;;;;;;;;-2.60;99.90;;;-3.84;100.00;95801.25;10567843;28;1877;-68
2022/04/04 03:33:07;;;;;;;;;;;-2.60;99.90;;;-3.87;100.00;95805.06;10567414;28;2040;-67
2022/04/04 03:38:13;;;;;;;;;;;-2.50;99.90;;;-4.00;100.00;95802.28;10569966;28;1861;-68
2022/04/04 03:43:17;;;;;;;;;;;-2.60;99.90;;;-4.02;100.00;95793.75;10563131;28;1893;-68
2022/04/04 03:48:20;;;;;;;;;;;-2.70;99.90;;;-4.01;100.00;95787.50;10564038;28;1922;-68
2022/04/04 03:53:23;;;;;;;;;;;-2.70;99.90;;;-4.09;100.00;95793.66;10570884;27;1762;-67
2022/04/04 03:58:27;;;;;;;;;;;-2.80;99.90;;;-4.05;100.00;95794.13;10566592;28;1868;-68
2022/04/04 04:03:31;;;;;;;;;;;-2.80;99.90;;;-4.05;100.00;95791.50;10579967;27;1784;-69
2022/04/04 04:08:34;;;;;;;;;;;-2.70;99.90;;;-3.99;100.00;95789.97;10561591;28;1909;-68
2022/04/04 04:13:37;;;;;;;;;;;-2.70;99.90;;;-4.04;99.79;95795.75;10558855;27;1852;-68
2022/04/04 04:18:41;;;;;;;;;;;-2.70;99.90;;;-4.01;100.00;95798.00;10571940;27;1908;-68
2022/04/04 04:23:44;;;;;;;;;;;-2.70;99.90;;;-4.03;100.00;95794.75;10558933;28;1917;-68
2022/04/04 04:28:51;;;;;;;;;;;-2.80;99.90;;;-4.13;100.00;95797.66;10565073;28;1902;-67
2022/04/04 04:33:54;;;;;;;;;;;-2.80;99.90;;;-4.14;100.00;95795.19;10571196;28;1877;-67
2022/04/04 04:38:57;;;;;;;;;;;-2.80;99.90;;;-4.21;100.00;95794.28;10565652;28;1821;-68
2022/04/04 04:44:03;;;;;;;;;;;-2.90;99.90;;;-4.26;100.00;95796.66;10567387;28;1821;-68
2022/04/04 04:49:06;;;;;;;;;;;-2.90;99.90;;;-4.31;100.00;95804.28;10564561;28;1903;-68
2022/04/04 04:54:09;;;;;;;;;;;-2.90;99.90;;;-4.21;100.00;95792.47;10562626;28;1970;-67
2022/04/04 04:59:12;;;;;;;;;;;-3.00;99.90;;;-4.15;100.00;95799.63;10563780;28;1818;-68
2022/04/04 05:04:17;;;;;;;;;;;-3.00;99.90;;;-4.03;100.00;95794.75;10560614;28;1935;-68
2022/04/04 05:09:21;;;;;;;;;;;-2.90;99.90;;;-3.88;99.53;95789.47;10561005;28;1963;-68
2022/04/04 05:14:23;;;;;;;;;;;-2.80;99.90;;;-3.61;97.26;95777.47;10559720;28;1940;-67
2022/04/04 05:19:27;;;;;;;;;;;-2.60;99.90;;;-3.33;93.91;95778.38;10562471;28;1947;-68
2022/04/04 05:24:30;;;;;;;;;;;-2.40;99.90;;;-2.99;91.28;95776.88;10573583;27;1840;-68
2022/04/04 05:29:33;;;;;;;;;;;-2.20;99.90;;;-2.69;85.80;95784.59;10556803;28;1989;-70
2022/04/04 05:34:36;;;;;;;;;;;-1.90;99.90;;;-2.34;84.07;95782.84;10562167;28;1865;-67
2022/04/04 05:39:39;;;;;;;;;;;-1.60;99.90;;;-1.82;79.18;95781.50;10577393;27;1839;-68
2022/04/04 05:44:43;;;;;;;;;;;-1.30;99.90;;;-1.30;76.19;95785.34;10557202;28;2205;-68
2022/04/04 05:49:46;;;;;;;;;;;-0.90;99.90;;;-0.93;73.93;95792.72;10568646;27;2133;-68
2022/04/04 05:54:57;;;;;;;;;;;-0.60;99.90;;;-1.14;73.64;95798.97;10560359;28;1511;-68
2022/04/04 06:00:00;;;;;;;;;;;-0.40;99.90;;;-0.80;74.02;95791.91;10567999;27;1814;-67
2022/04/04 06:05:08;;;;;;;;;;;-0.30;99.90;;;-0.76;73.48;95795.78;10559843;28;1850;-67
2022/04/04 06:10:13;;;;;;;;;;;-0.10;99.90;;;-0.61;75.13;95793.75;10557712;28;1901;-67
2022/04/04 06:15:17;;;;;;;;;;;0.00;99.90;;;-0.39;74.08;95798.81;10562006;28;1849;-67
2022/04/04 06:20:20;;;;;;;;;;;0.20;99.90;;;-0.16;72.80;95791.28;10571128;27;1948;-66
2022/04/04 06:25:24;;;;;;;;;;;0.40;99.90;;;-0.08;72.80;95804.25;10560074;28;1850;-67
2022/04/04 06:30:27;;;;;;;;;;;0.50;99.90;;;0.09;69.83;95801.19;10555627;28;1986;-67
2022/04/04 06:35:30;;;;;;;;;;;0.70;99.90;;;0.17;67.95;95804.41;10555773;28;1845;-67
2022/04/04 06:40:33;;;;;;;;;;;0.80;99.90;;;0.15;67.10;95816.22;10552858;28;1924;-69
2022/04/04 06:45:36;;;;;;;;;;;0.80;99.90;;;0.44;64.56;95799.84;10553472;28;1707;-68
2022/04/04 06:50:40;;;;;;;;;;;1.00;99.90;;;0.51;63.59;95792.72;10552040;28;1890;-69
2022/04/04 06:55:44;;;;;;;;;;;1.10;99.90;;;0.58;66.14;95797.16;10552762;28;1932;-69
2022/04/04 07:00:48;;;;;;;;;;;1.20;99.90;;;0.95;63.33;95793.69;10549226;28;1936;-69
2022/04/04 07:05:51;;;;;;;;;;;1.40;99.90;;;0.68;61.63;95789.56;10552710;28;1912;-70
2022/04/04 07:10:54;;;;;;;;;;;1.40;99.90;;;0.89;61.27;95789.28;10546361;28;1977;-69
2022/04/04 07:15:57;;;;;;;;;;;1.50;99.90;;;0.85;61.42;95782.75;10557951;28;1810;-69
2022/04/04 07:21:00;;;;;;;;;;;1.50;99.90;;;0.91;61.82;95783.75;10555591;28;1805;-69
2022/04/04 07:26:04;;;;;;;;;;;1.50;99.90;;;1.02;58.75;95775.94;10546872;28;1852;-69
2022/04/04 07:31:09;;;;;;;;;;;1.60;99.90;;;1.05;59.68;95772.06;10557123;28;1981;-70
2022/04/04 07:36:14;;;;;;;;;;;1.70;99.90;;;1.41;56.85;95768.75;10555195;28;1887;-71
2022/04/04 07:41:16;;;;;;;;;;;1.90;99.90;;;1.77;57.98;95756.59;10555425;28;1898;-69
2022/04/04 07:46:19;;;;;;;;;;;2.10;99.90;;;2.03;53.00;95766.94;10549985;28;1789;-69
2022/04/04 07:51:22;;;;;;;;;;;2.60;99.90;;;1.79;53.02;95765.16;10554393;28;1941;-70
2022/04/04 07:56:25;;;;;;;;;;;2.50;99.90;;;2.08;51.76;95769.72;10559737;28;1885;-70
2022/04/04 08:01:28;;;;;;;;;;;2.70;99.90;;;2.36;51.66;95771.09;10558958;28;1903;-69
2022/04/04 08:06:31;;;;;;;;;;;2.90;99.90;;;2.41;51.58;95764.03;10560667;28;1805;-69
2022/04/04 08:11:34;;;;;;;;;;;3.10;99.90;;;2.55;50.39;95758.59;10557797;28;1976;-69
2022/04/04 08:16:37;;;;;;;;;;;3.20;99.90;;;2.59;47.83;95754.47;10568002;27;1805;-69
2022/04/04 08:21:41;;;;;;;;;;;3.30;99.90;;;3.28;50.32;95747.75;10560659;28;1786;-69
2022/04/04 08:26:44;;;;;;;;;;;3.60;99.90;;;3.45;50.42;95751.38;10548670;28;1876;-70
2022/04/04 08:31:47;;;;;;;;;;;3.80;99.90;;;3.26;48.85;95744.53;10560844;28;1899;-69
2022/04/04 08:36:50;;;;;;;;;;;3.90;99.90;;;3.35;49.42;95734.38;10562188;28;1826;-68
2022/04/04 08:41:53;;;;;;;;;;;3.90;99.90;;;3.42;48.34;95740.38;10551196;28;1801;-69
2022/04/04 08:47:08;;;;;;;;;;;3.90;99.90;;;3.42;50.46;95721.78;10555340;28;1722;-69
2022/04/04 08:52:12;;;;;;;;;;;;;;;3.97;47.34;95724.09;10553441;28;1983;-69
2022/04/04 08:57:16;;;;;;;;;;;;;;;3.84;48.93;95713.72;10571542;27;1882;-70
2022/04/04 09:02:20;;;;;;;;;;;;;;;3.85;47.42;95718.78;10557744;28;1779;-70
2022/04/04 09:07:23;;;;;;;;;;;;;;;3.63;47.83;95721.25;10556399;28;1838;-70
2022/04/04 09:12:28;;;;;;;;;;;;;;;3.74;48.34;95709.78;10554702;28;2016;-70
2022/04/04 09:17:33;;;;;;;;;;;;;;;3.64;48.46;95712.22;10558331;27;2181;-70
2022/04/04 09:22:36;;;;;;;;;;;;;;;3.56;46.87;95690.47;10554377;27;1813;-70
2022/04/04 09:27:40;;;;;;;;;;;;;;;3.28;47.48;95691.16;10552054;27;1837;-69
2022/04/04 09:32:44;;;;;;;;;;;;;;;3.61;49.34;95686.09;10553493;28;1967;-70
2022/04/04 09:37:48;;;;;;;;;;;4.20;99.90;;;3.87;47.90;95676.00;10560932;27;1782;-71
2022/04/04 09:42:51;;;;;;;;;;;4.40;99.90;;;3.73;49.63;95675.44;10571611;28;1761;-71
2022/04/04 09:47:54;;;;;;;;;;;4.60;99.90;;;3.66;48.30;95675.56;10571417;28;1802;-71
2022/04/04 09:52:57;;;;;;;;;;;4.60;99.90;;;3.78;47.61;95652.44;10584340;27;1987;-70
2022/04/04 09:58:00;;;;;;;;;;;4.70;99.90;;;4.38;49.87;95639.78;10578616;28;1817;-71
2022/04/04 10:03:05;;;;;;;;;;;;;;;4.81;48.02;95640.03;10568721;28;1819;-70
2022/04/04 10:08:08;;;;;;;;;;;5.30;99.90;;;4.10;49.77;95640.59;10575266;27;1722;-70
2022/04/04 10:13:11;;;;;;;;;;;5.10;99.90;;;3.96;49.82;95632.88;10566465;28;1984;-70
2022/04/04 10:18:14;;;;;;;;;;;5.00;99.90;;;4.19;51.16;95621.34;10560982;28;1833;-70
2022/04/04 10:23:17;;;;;;;;;;;4.90;99.90;;;4.66;50.02;95604.38;10564404;27;1772;-70
2022/04/04 10:28:21;;;;;;;;;;;5.20;99.90;;;4.64;48.34;95601.91;10553756;28;1983;-71
2022/04/04 10:33:24;;;;;;;;;;;5.50;99.90;;;4.83;47.15;95594.50;10556216;28;1902;-70
2022/04/04 10:38:27;;;;;;;;;;;5.60;99.90;;;5.06;49.34;95588.22;10564250;27;1441;-70
2022/04/04 10:43:30;;;;;;;;;;;5.80;99.90;;;4.96;48.48;95572.06;10548290;28;1758;-69
2022/04/04 10:48:33;;;;;;;;;;;6.00;99.90;;;4.66;49.35;95562.56;10539425;28;1949;-69
2022/04/04 10:53:36;;;;;;;;;;;5.70;99.90;;;3.71;52.74;95572.00;10550157;28;1978;-68
2022/04/04 10:58:38;;;;;;;;;;;5.00;99.90;;;3.62;52.38;95565.44;10551575;28;1790;-69
2022/04/04 11:03:42;;;;;;;;;;;4.70;99.90;;;3.68;53.59;95559.16;10550694;28;1768;-68
2022/04/04 11:08:46;;;;;;;;;;;4.60;99.90;;;3.73;53.67;95546.00;10551693;28;1779;-69
2022/04/04 11:13:49;;;;;;;;;;;4.70;99.90;;;3.75;53.61;95535.94;10546329;28;2001;-69
2022/04/04 11:18:52;;;;;;;;;;;4.70;99.90;;;4.29;52.33;95525.75;10542681;28;1833;-69
2022/04/04 11:23:55;;;;;;;;;;;5.00;99.90;;;4.58;53.74;95517.69;10549913;28;1754;-70
2022/04/04 11:28:59;;;;;;;;;;;5.40;99.90;;;4.52;50.84;95513.38;10559053;28;1899;-69
2022/04/04 11:34:01;;;;;;;;;;;5.60;99.90;;;4.76;51.87;95509.47;10558225;28;1989;-70
2022/04/04 11:39:09;;;;;;;;;;;5.60;99.90;;;4.62;52.55;95497.53;10557769;28;1664;-70
2022/04/04 11:44:13;;;;;;;;;;;5.50;99.90;;;4.93;52.59;95482.03;10550666;28;1810;-70
2022/04/04 11:49:16;;;;;;;;;;;5.80;99.90;;;4.91;52.74;95466.28;10557854;28;1865;-69
2022/04/04 11:54:27;;;;;;;;;;;5.90;99.90;;;5.07;53.85;95473.41;10562003;27;1979;-70
2022/04/04 11:59:49;;;;;;;;;;;6.00;99.90;;;5.15;52.34;95464.19;10550783;28;2174;-71
2022/04/04 12:04:53;;;;;;;;;;;6.10;99.90;;;5.08;51.47;95458.25;10558217;28;1813;-70
2022/04/04 12:09:56;;;;;;;;;;;6.10;99.90;;;5.09;52.42;95450.03;10550173;28;1754;-68
2022/04/04 12:14:59;;;;;;;;;;;6.10;99.90;;;5.15;54.09;95438.38;10551269;28;1898;-69
2022/04/04 12:20:02;;;;;;;;;;;6.10;99.90;;;5.23;53.26;95423.81;10561398;27;1964;-70
2022/04/04 12:25:05;;;;;;;;;;;6.20;99.90;;;5.45;53.38;95412.31;10557006;28;1817;-71
2022/04/04 12:30:09;;;;;;;;;;;;;;;5.62;53.49;95411.19;10553171;28;1967;-70
2022/04/04 12:35:13;;;;;;;;;;;6.40;99.90;;;5.73;53.51;95401.44;10560002;28;1905;-73
2022/04/04 12:40:16;;;;;;;;;;;6.70;99.90;;;5.81;52.25;95398.31;10553914;28;1814;-70
2022/04/04 12:45:19;;;;;;;;;;;6.80;99.90;;;5.80;53.83;95390.56;10560906;28;1867;-70
2022/04/04 12:50:22;;;;;;;;;;;6.70;99.90;;;6.16;52.96;95376.47;10552468;28;1830;-71
2022/04/04 12:55:25;;;;;;;;;;;7.10;99.90;;;5.59;55.20;95362.88;10552658;28;1995;-70
2022/04/04 13:00:28;;;;;;;;;;;6.70;99.90;;;5.25;56.73;95352.41;10567728;27;1801;-69
2022/04/04 13:05:32;;;;;;;;;;;6.40;99.90;;;5.12;57.75;95339.47;10561191;28;1813;-69
2022/04/04 13:10:35;;;;;;;;;;;6.10;99.90;;;5.12;57.50;95328.81;10560814;28;1853;-69
2022/04/04 13:15:46;;;;;;;;;;;6.10;99.90;;;5.21;58.09;95321.19;10568709;27;2004;-68
2022/04/04 13:21:09;;;;;;;;;;;6.10;99.90;;;5.36;59.36;95311.50;10558228;28;1861;-70
2022/04/04 13:26:12;;;;;;;;;;;6.20;99.90;;;5.41;58.19;95319.53;10544621;28;1825;-69
2022/04/04 13:31:15;;;;;;;;;;;6.40;99.90;;;5.18;59.19;95297.72;10563305;27;1986;-69
2022/04/04 13:36:19;;;;;;;;;;;6.20;99.90;;;5.38;60.36;95297.91;10552797;27;2004;-69
2022/04/04 13:41:22;;;;;;;;;;;6.20;99.90;;;5.75;58.27;95283.84;10551987;28;1841;-69
2022/04/04 13:46:25;;;;;;;;;;;6.50;99.90;;;5.82;57.86;95271.88;10553420;28;1997;-70
2022/04/04 13:51:29;;;;;;;;;;;6.60;99.90;;;5.95;57.01;95258.13;10553438;28;1906;-68
2022/04/04 13:56:35;;;;;;;;;;;6.80;99.90;;;6.10;58.15;95252.06;10540512;28;1864;-69
2022/04/04 14:01:38;;;;;;;;;;;6.80;99.90;;;6.27;56.06;95230.56;10550882;28;1809;-68
2022/04/04 14:06:41;;;;;;;;;;;7.00;99.90;;;6.50;57.74;95213.31;10555993;28;1865;-68
2022/04/04 14:11:45;;;;;;;;;;;7.30;99.90;;;6.18;57.45;95211.59;10542884;28;1976;-68
2022/04/04 14:16:49;;;;;;;;;;;7.30;99.90;;;6.02;56.28;95211.75;10567442;27;1829;-69
2022/04/04 14:21:52;;;;;;;;;;;7.10;99.90;;;5.79;58.08;95204.91;10548557;28;2039;-67
2022/04/04 14:26:56;;;;;;;;;;;6.80;99.90;;;5.86;57.69;95186.84;10553230;28;1846;-68
2022/04/04 14:31:59;;;;;;;;;;;6.80;99.90;;;6.23;57.85;95192.94;10551289;28;1914;-69
2022/04/04 14:37:02;;;;;;;;;;;6.90;99.90;;;6.23;56.64;95184.09;10553827;28;1817;-68
2022/04/04 14:42:05;;;;;;;;;;;7.00;99.90;;;6.16;58.66;95165.66;10547431;28;1845;-69
2022/04/04 14:47:08;;;;;;;;;;;7.10;99.90;;;6.33;56.86;95153.97;10560527;28;1888;-70
2022/04/04 14:52:30;;;;;;;;;;;7.20;99.90;;;6.32;58.06;95153.19;10547806;28;1922;-69
2022/04/04 14:57:33;;;;;;;;;;;7.30;99.90;;;6.29;57.37;95145.69;10556909;28;1904;-69
2022/04/04 15:02:36;;;;;;;;;;;7.20;99.90;;;6.11;56.68;95146.19;10554087;28;1822;-68
2022/04/04 15:07:59;;;;;;;;;;;6.80;99.90;;;6.00;56.90;95155.19;10564841;27;1984;-69
2022/04/04 15:13:02;;;;;;;;;;;7.10;99.90;;;6.21;57.54;95146.19;10561503;28;1976;-67
2022/04/04 15:18:05;;;;;;;;;;;7.00;99.90;;;6.21;55.92;95133.66;10563922;28;1865;-70
2022/04/04 15:23:12;;;;;;;;;;;7.10;99.90;;;6.29;56.42;95116.31;10559235;28;1758;-68
2022/04/04 15:28:17;;;;;;;;;;;7.10;99.90;;;6.34;55.02;95119.00;10545502;28;1942;-70
2022/04/04 15:33:22;;;;;;;;;;;7.20;99.90;;;6.19;55.92;95118.97;10553297;28;2019;-70
2022/04/04 15:38:25;;;;;;;;;;;7.20;99.90;;;5.93;55.86;95121.53;10568671;27;1865;-70
2022/04/04 15:43:30;;;;;;;;;;;7.10;99.90;;;5.75;56.38;95118.47;10564097;27;1831;-70
2022/04/04 15:48:33;;;;;;;;;;;6.90;99.90;;;5.75;56.06;95121.94;10562433;28;1947;-70
2022/04/04 15:53:37;;;;;;;;;;;6.70;99.90;;;5.65;55.40;95112.03;10561510;28;1973;-71
2022/04/04 15:58:39;;;;;;;;;;;6.60;99.90;;;5.53;57.18;95107.94;10548083;28;1884;-67
2022/04/04 16:03:44;;;;;;;;;;;6.50;99.90;;;5.53;56.85;95105.28;10559727;28;1918;-68
2022/04/04 16:08:48;;;;;;;;;;;6.50;99.90;;;5.59;55.68;95106.91;10559145;28;1867;-70
2022/04/04 16:13:52;;;;;;;;;;;6.50;99.90;;;5.50;56.52;95103.16;10560845;28;1890;-70
2022/04/04 16:18:54;;;;;;;;;;;6.50;99.90;;;5.60;56.49;95100.56;10570023;28;1819;-68
2022/04/04 16:23:59;;;;;;;;;;;6.50;99.90;;;5.75;54.97;95095.28;10567735;27;1845;-69
2022/04/04 16:29:02;;;;;;;;;;;6.60;99.90;;;5.85;56.07;95090.00;10558531;28;1838;-69
2022/04/04 16:34:06;;;;;;;;;;;6.70;99.90;;;5.88;56.68;95089.47;10566653;27;1918;-70
2022/04/04 16:39:10;;;;;;;;;;;6.70;99.90;;;5.90;55.72;95083.88;10562282;27;2404;-69
2022/04/04 16:44:18;;;;;;;;;;;6.70;99.90;;;5.82;58.60;95085.19;10569956;27;1814;-69
2022/04/04 16:49:21;;;;;;;;;;;6.90;99.90;;;5.65;59.59;95090.69;10561850;28;1848;-69
2022/04/04 16:54:24;;;;;;;;;;;6.60;99.90;;;5.46;56.89;95112.72;10571092;28;1989;-69
2022/04/04 16:59:28;;;;;;;;;;;6.90;99.90;;;5.31;57.20;95100.91;10567488;27;1872;-70
2022/04/04 17:04:31;;;;;;;;;;;6.20;99.90;;;5.14;59.41;95106.38;10561289;28;1825;-69
2022/04/04 17:09:36;;;;;;;;;;;6.10;99.90;;;5.14;57.40;95100.25;10564681;28;1782;-69
2022/04/04 17:14:40;;;;;;;;;;;6.10;99.90;;;5.12;58.47;95094.38;10556173;28;1929;-69
2022/04/04 17:19:44;;;;;;;;;;;6.00;99.90;;;4.99;59.15;95098.28;10551303;28;1802;-69
2022/04/04 17:24:47;;;;;;;;;;;5.90;99.90;;;4.82;59.20;95092.25;10550593;27;1838;-69
2022/04/04 17:29:51;;;;;;;;;;;5.80;99.90;;;4.71;60.74;95094.06;10556577;27;1881;-69
2022/04/04 17:34:55;;;;;;;;;;;5.70;99.90;;;4.67;60.69;95090.28;10561814;27;1973;-70
2022/04/04 17:40:01;;;;;;;;;;;5.70;99.90;;;4.65;60.65;95103.06;10558837;27;1872;-68
2022/04/04 17:45:04;;;;;;;;;;;5.60;99.90;;;4.63;61.18;95102.47;10555879;28;1946;-69
2022/04/04 17:50:07;;;;;;;;;;;5.60;99.90;;;4.62;61.94;95103.53;10575460;27;2024;-69
2022/04/04 17:55:10;;;;;;;;;;;5.60;99.90;;;4.57;61.70;95100.81;10569680;27;1979;-69
2022/04/04 18:00:14;;;;;;;;;;;5.50;99.90;;;4.51;62.61;95099.16;10559927;28;1816;-70
2022/04/04 18:05:17;;;;;;;;;;;5.60;99.90;;;4.55;62.44;95118.91;10562500;28;1837;-70
2022/04/04 18:10:20;;;;;;;;;;;5.50;99.90;;;4.48;61.76;95118.31;10564586;28;1762;-69
2022/04/04 18:15:23;;;;;;;;;;;5.50;99.90;;;4.50;62.26;95118.84;10558059;28;1903;-68
2022/04/04 18:20:27;;;;;;;;;;;5.40;99.90;;;4.42;64.36;95114.81;10556232;28;1853;-69
2022/04/04 18:25:30;;;;;;;;;;;5.40;99.90;;;4.52;63.07;95124.75;10557041;28;1673;-69
2022/04/04 18:30:33;;;;;;;;;;;5.40;99.90;;;4.42;63.67;95120.13;10567540;28;2036;-69
2022/04/04 18:35:39;;;;;;;;;;;5.40;99.90;;;4.35;63.74;95135.47;10556906;28;1902;-70
2022/04/04 18:40:42;;;;;;;;;;;5.40;99.90;;;4.40;64.24;95137.41;10557100;28;1819;-69
2022/04/04 18:45:45;;;;;;;;;;;5.30;99.90;;;4.38;62.97;95142.16;10565011;27;1700;-70
2022/04/04 18:50:50;;;;;;;;;;;5.30;99.90;;;4.36;64.93;95157.56;10555154;28;1949;-69
2022/04/04 18:55:55;;;;;;;;;;;5.30;99.90;;;4.37;64.48;95152.00;10559225;28;1922;-70
2022/04/04 19:00:58;;;;;;;;;;;5.30;99.90;;;4.38;63.11;95147.47;10583746;28;1471;-70
2022/04/04 19:06:01;;;;;;;;;;;5.30;99.90;;;4.33;64.34;95153.56;10583058;28;1861;-69
2022/04/04 19:11:06;;;;;;;;;;;5.30;99.90;;;4.29;65.38;95158.56;10583204;28;1963;-71
2022/04/04 19:16:09;;;;;;;;;;;5.20;99.90;;;4.32;66.33;95162.56;10583662;28;1955;-70
2022/04/04 19:21:12;;;;;;;;;;;5.30;99.90;;;4.27;67.13;95142.06;10589629;28;1904;-70
2022/04/04 19:26:15;;;;;;;;;;;5.30;99.90;;;4.38;64.78;95160.78;10591765;28;1880;-70
2022/04/04 19:31:22;;;;;;;;;;;5.30;99.90;;;4.38;64.96;95163.44;10585720;28;1881;-70
2022/04/04 19:36:25;;;;;;;;;;;5.30;99.90;;;4.34;65.32;95163.94;10588039;28;1933;-70
2022/04/04 19:41:28;;;;;;;;;;;5.30;99.90;;;4.22;66.75;95149.97;10596168;28;1891;-70
2022/04/04 19:46:31;;;;;;;;;;;5.20;99.90;;;4.12;67.85;95165.00;10585280;27;1943;-69
2022/04/04 19:51:34;;;;;;;;;;;5.10;99.90;;;3.91;68.92;95162.09;10602062;28;1808;-70
2022/04/04 19:56:38;;;;;;;;;;;4.90;99.90;;;3.85;70.55;95162.28;10589675;27;1972;-70
2022/04/04 20:01:40;;;;;;;;;;;4.80;99.90;;;3.89;70.72;95174.84;10589895;28;1913;-70
2022/04/04 20:06:44;;;;;;;;;;;4.80;99.90;;;3.91;72.69;95167.41;10583727;27;1704;-70
2022/04/04 20:11:48;;;;;;;;;;;;;;;3.66;77.22;95181.16;10571005;28;1818;-69
2022/04/04 20:16:51;;;;;;;;;;;;;;;3.55;79.79;95176.75;10589511;28;1961;-69
2022/04/04 20:21:55;;;;;;;;;;;;;;;3.55;81.69;95184.72;10579308;28;1909;-69
2022/04/04 20:26:58;;;;;;;;;;;;;;;3.39;85.08;95170.41;10594823;27;1757;-69
2022/04/04 20:32:01;;;;;;;;;;;;;;;3.23;87.59;95172.03;10577086;28;1905;-72
2022/04/04 20:37:05;;;;;;;;;;;;;;;3.17;90.36;95183.59;10571478;28;1894;-70
2022/04/04 20:42:10;;;;;;;;;;;;;;;3.09;93.13;95191.97;10559812;28;1817;-70
2022/04/04 20:47:13;;;;;;;;;;;;;;;3.01;95.64;95176.47;10556051;28;1794;-70
2022/04/04 20:52:18;;;;;;;;;;;;;;;2.96;96.49;95182.47;10573083;27;1850;-69
2022/04/04 20:57:21;;;;;;;;;;;;;;;2.83;97.27;95188.09;10551598;28;1949;-71
2022/04/04 21:02:25;;;;;;;;;;;;;;;2.74;100.00;95194.03;10549587;28;1856;-71
2022/04/04 21:07:29;;;;;;;;;;;;;;;2.66;100.00;95188.06;10559797;28;1884;-70
2022/04/04 21:12:32;;;;;;;;;;;;;;;2.64;100.00;95178.72;10557270;28;1834;-70
2022/04/04 21:17:36;;;;;;;;;;;;;;;2.54;100.00;95182.00;10558265;28;1913;-70
2022/04/04 21:22:39;;;;;;;;;;;;;;;2.56;100.00;95182.59;10561221;28;1854;-69
2022/04/04 21:27:42;;;;;;;;;;;;;;;2.59;100.00;95176.78;10556610;28;1822;-70
2022/04/04 21:32:46;;;;;;;;;;;;;;;2.60;100.00;95181.03;10552003;28;1841;-70
2022/04/04 21:37:49;;;;;;;;;;;;;;;2.64;100.00;95179.53;10571667;27;1914;-69
2022/04/04 21:42:52;;;;;;;;;;;;;;;2.67;100.00;95171.13;10556591;28;1836;-70
2022/04/04 21:47:56;;;;;;;;;;;;;;;2.79;100.00;95160.41;10572759;27;1861;-69
2022/04/04 21:52:59;;;;;;;;;;;;;;;2.88;100.00;95177.56;10556626;27;1923;-69
2022/04/04 21:58:02;;;;;;;;;;;;;;;2.88;100.00;95179.44;10553245;28;1955;-69
2022/04/04 22:03:06;;;;;;;;;;;;;;;2.80;100.00;95183.28;10559756;27;2206;-69
2022/04/04 22:08:09;;;;;;;;;;;;;;;2.81;100.00;95178.78;10573363;27;1864;-69
2022/04/04 22:13:13;;;;;;;;;;;;;;;2.75;100.00;95175.22;10553534;28;2068;-68
2022/04/04 22:18:17;;;;;;;;;;;;;;;2.79;100.00;95172.88;10563676;28;2107;-70
2022/04/04 22:23:21;;;;;;;;;;;;;;;2.78;100.00;95165.97;10557593;27;1858;-70
2022/04/04 22:28:25;;;;;;;;;;;;;;;2.76;100.00;95170.72;10552799;27;1840;-69
2022/04/04 22:33:29;;;;;;;;;;;;;;;2.73;100.00;95174.63;10548721;28;1914;-69
2022/04/04 22:38:33;;;;;;;;;;;;;;;2.74;100.00;95175.47;10554675;28;1551;-69
2022/04/04 22:43:37;;;;;;;;;;;;;;;2.66;100.00;95172.13;10555566;28;1892;-70
2022/04/04 22:48:41;;;;;;;;;;;;;;;2.59;100.00;95176.78;10557817;28;1870;-69
2022/04/04 22:53:44;;;;;;;;;;;;;;;2.55;100.00;95170.38;10555131;28;2033;-69
2022/04/04 22:58:47;;;;;;;;;;;;;;;2.52;100.00;95168.16;10555750;28;1809;-69
2022/04/04 23:03:52;;;;;;;;;;;;;;;2.50;100.00;95164.97;10557132;28;1816;-68
2022/04/04 23:08:56;;;;;;;;;;;;;;;2.40;100.00;95170.88;10550005;27;1825;-68
2022/04/04 23:14:00;;;;;;;;;;;;;;;2.35;100.00;95169.97;10554707;28;1973;-69
2022/04/04 23:19:04;;;;;;;;;;;;;;;2.39;100.00;95168.47;10558788;28;1834;-68
2022/04/04 23:24:07;;;;;;;;;;;;;;;2.30;100.00;95167.25;10551871;28;1790;-69
2022/04/04 23:29:11;;;;;;;;;;;;;;;2.29;100.00;95155.00;10576019;27;1809;-69
2022/04/04 23:34:15;;;;;;;;;;;;;;;2.27;100.00;95162.38;10566925;27;1972;-68
2022/04/04 23:39:20;;;;;;;;;;;;;;;2.13;100.00;95157.38;10566097;27;1954;-69
2022/04/04 23:44:24;;;;;;;;;;;;;;;2.11;100.00;95169.25;10555866;28;1974;-69
2022/04/04 23:49:27;;;;;;;;;;;;;;;2.07;100.00;95163.59;10562992;28;1965;-69
2022/04/04 23:54:30;;;;;;;;;;;;;;;2.05;100.00;95176.31;10561071;28;1984;-70
2022/04/04 23:59:34;;;;;;;;;;;;;;;1.99;100.00;95150.72;10563820;28;1818;-69
